sensor_id;sensor_type;location;lat;lon;timestamp;pressure;altitude;pressure_sealevel;temperature;humidity
72124;BME280;63818;37.134;-8.548;2022-09-27T00:01:53;101453.2;;;22.3;39.3
72124;BME280;63818;37.134;-8.548;2022-09-27T00:06:40;101457.1;;;22.3;39.1
72124;BME280;63818;37.134;-8.548;2022-09-27T00:11:28;101455.5;;;22.3;39.5
72124;BME280;63818;37.134;-8.548;2022-09-27T00:16:14;101460.1;;;22.2;39.1
72124;BME280;63818;37.134;-8.548;2022-09-27T00:21:05;101453.4;;;22.2;39.4
72124;BME280;63818;37.134;-8.548;2022-09-27T00:25:58;101460.7;;;22.1;39.4
72124;BME280;63818;37.134;-8.548;2022-09-27T00:30:44;101456.8;;;22.1;39.9
72124;BME280;63818;37.134;-8.548;2022-09-27T00:35:30;101460.2;;;22.0;39.7
72124;BME280;63818;37.134;-8.548;2022-09-27T00:40:17;101461.4;;;22.0;39.9
72124;BME280;63818;37.134;-8.548;2022-09-27T00:45:05;101463.2;;;22.0;40.3
72124;BME280;63818;37.134;-8.548;2022-09-27T00:49:55;101465.0;;;21.9;40.5
72124;BME280;63818;37.134;-8.548;2022-09-27T00:54:49;101468.6;;;21.9;40.0
72124;BME280;63818;37.134;-8.548;2022-09-27T00:59:40;101469.7;;;21.9;40.6
72124;BME280;63818;37.134;-8.548;2022-09-27T01:04:29;101465.4;;;21.9;40.3
72124;BME280;63818;37.134;-8.548;2022-09-27T01:09:17;101463.7;;;21.8;40.6
72124;BME280;63818;37.134;-8.548;2022-09-27T01:14:54;101462.9;;;21.8;40.6
72124;BME280;63818;37.134;-8.548;2022-09-27T01:20:06;101459.8;;;21.8;41.2
72124;BME280;63818;37.134;-8.548;2022-09-27T01:25:00;101455.0;;;21.8;41.1
72124;BME280;63818;37.134;-8.548;2022-09-27T01:34:51;101458.1;;;21.8;40.8
72124;BME280;63818;37.134;-8.548;2022-09-27T01:39:45;101458.6;;;21.8;41.0
72124;BME280;63818;37.134;-8.548;2022-09-27T01:44:38;101455.8;;;21.7;40.7
72124;BME280;63818;37.134;-8.548;2022-09-27T01:49:31;101451.1;;;21.7;41.0
72124;BME280;63818;37.134;-8.548;2022-09-27T01:54:24;101454.5;;;21.7;40.7
72124;BME280;63818;37.134;-8.548;2022-09-27T01:59:13;101460.8;;;21.7;40.7
72124;BME280;63818;37.134;-8.548;2022-09-27T02:04:02;101455.4;;;21.8;40.3
72124;BME280;63818;37.134;-8.548;2022-09-27T02:08:52;101450.4;;;21.8;39.9
72124;BME280;63818;37.134;-8.548;2022-09-27T02:13:45;101452.6;;;21.7;40.5
72124;BME280;63818;37.134;-8.548;2022-09-27T02:18:39;101441.0;;;21.6;40.8
72124;BME280;63818;37.134;-8.548;2022-09-27T02:23:33;101445.4;;;21.6;40.7
72124;BME280;63818;37.134;-8.548;2022-09-27T02:28:26;101449.2;;;21.5;40.8
72124;BME280;63818;37.134;-8.548;2022-09-27T02:33:13;101449.2;;;21.5;41.0
72124;BME280;63818;37.134;-8.548;2022-09-27T02:38:00;101449.2;;;21.5;40.9
72124;BME280;63818;37.134;-8.548;2022-09-27T02:42:47;101447.9;;;21.5;40.9
72124;BME280;63818;37.134;-8.548;2022-09-27T02:47:58;101447.0;;;21.5;40.7
72124;BME280;63818;37.134;-8.548;2022-09-27T02:52:57;101449.4;;;21.4;41.3
72124;BME280;63818;37.134;-8.548;2022-09-27T02:57:54;101450.5;;;21.4;41.6
72124;BME280;63818;37.134;-8.548;2022-09-27T03:02:49;101439.1;;;21.4;40.9
72124;BME280;63818;37.134;-8.548;2022-09-27T03:07:40;101451.2;;;21.4;40.6
72124;BME280;63818;37.134;-8.548;2022-09-27T03:12:26;101443.5;;;21.4;40.9
72124;BME280;63818;37.134;-8.548;2022-09-27T03:17:13;101444.9;;;21.4;41.2
72124;BME280;63818;37.134;-8.548;2022-09-27T03:21:59;101443.3;;;21.3;41.0
72124;BME280;63818;37.134;-8.548;2022-09-27T03:26:45;101435.0;;;21.3;41.3
72124;BME280;63818;37.134;-8.548;2022-09-27T03:31:31;101431.1;;;21.2;40.6
72124;BME280;63818;37.134;-8.548;2022-09-27T03:36:18;101433.0;;;21.2;41.0
72124;BME280;63818;37.134;-8.548;2022-09-27T03:41:04;101439.8;;;21.1;41.3
72124;BME280;63818;37.134;-8.548;2022-09-27T03:45:51;101433.1;;;21.1;41.5
72124;BME280;63818;37.134;-8.548;2022-09-27T03:50:37;101433.1;;;21.1;41.5
72124;BME280;63818;37.134;-8.548;2022-09-27T03:55:24;101436.6;;;21.1;41.2
72124;BME280;63818;37.134;-8.548;2022-09-27T04:00:11;101430.1;;;21.2;41.6
72124;BME280;63818;37.134;-8.548;2022-09-27T04:04:57;101439.7;;;21.1;41.7
72124;BME280;63818;37.134;-8.548;2022-09-27T04:09:43;101445.5;;;21.1;42.1
72124;BME280;63818;37.134;-8.548;2022-09-27T04:14:29;101451.2;;;21.0;43.0
72124;BME280;63818;37.134;-8.548;2022-09-27T04:19:16;101442.7;;;20.8;44.0
72124;BME280;63818;37.134;-8.548;2022-09-27T04:24:02;101448.9;;;20.8;43.9
72124;BME280;63818;37.134;-8.548;2022-09-27T04:28:49;101455.2;;;20.3;44.1
72124;BME280;63818;37.134;-8.548;2022-09-27T04:33:35;101453.6;;;20.3;44.0
72124;BME280;63818;37.134;-8.548;2022-09-27T04:38:23;101452.6;;;20.2;44.3
72124;BME280;63818;37.134;-8.548;2022-09-27T04:43:10;101453.7;;;20.3;44.1
72124;BME280;63818;37.134;-8.548;2022-09-27T04:47:56;101448.5;;;20.3;44.3
72124;BME280;63818;37.134;-8.548;2022-09-27T04:52:43;101456.5;;;19.9;45.0
72124;BME280;63818;37.134;-8.548;2022-09-27T04:57:29;101464.0;;;19.9;45.3
72124;BME280;63818;37.134;-8.548;2022-09-27T05:02:18;101470.3;;;19.8;45.9
72124;BME280;63818;37.134;-8.548;2022-09-27T05:07:04;101484.7;;;19.6;46.4
72124;BME280;63818;37.134;-8.548;2022-09-27T05:11:50;101484.7;;;19.8;46.3
72124;BME280;63818;37.134;-8.548;2022-09-27T05:16:37;101483.5;;;19.5;46.8
72124;BME280;63818;37.134;-8.548;2022-09-27T05:21:25;101489.3;;;18.9;48.3
72124;BME280;63818;37.134;-8.548;2022-09-27T05:26:11;101497.6;;;19.2;47.4
72124;BME280;63818;37.134;-8.548;2022-09-27T05:30:57;101492.8;;;19.6;46.5
72124;BME280;63818;37.134;-8.548;2022-09-27T05:35:54;101499.3;;;19.6;46.3
72124;BME280;63818;37.134;-8.548;2022-09-27T05:40:41;101497.9;;;19.6;46.0
72124;BME280;63818;37.134;-8.548;2022-09-27T05:45:28;101504.5;;;19.5;46.4
72124;BME280;63818;37.134;-8.548;2022-09-27T05:50:14;101508.8;;;19.5;46.6
72124;BME280;63818;37.134;-8.548;2022-09-27T05:55:00;101514.7;;;19.6;46.0
72124;BME280;63818;37.134;-8.548;2022-09-27T05:59:46;101523.1;;;19.7;45.9
72124;BME280;63818;37.134;-8.548;2022-09-27T06:04:33;101520.3;;;19.7;46.0
72124;BME280;63818;37.134;-8.548;2022-09-27T06:09:19;101528.0;;;19.5;46.5
72124;BME280;63818;37.134;-8.548;2022-09-27T06:14:06;101541.1;;;19.5;47.0
72124;BME280;63818;37.134;-8.548;2022-09-27T06:18:52;101536.4;;;19.5;47.3
72124;BME280;63818;37.134;-8.548;2022-09-27T06:23:40;101531.1;;;19.2;47.7
72124;BME280;63818;37.134;-8.548;2022-09-27T06:28:30;101540.4;;;19.4;47.6
72124;BME280;63818;37.134;-8.548;2022-09-27T06:33:18;101538.1;;;19.4;47.8
72124;BME280;63818;37.134;-8.548;2022-09-27T06:38:05;101535.3;;;19.5;47.2
72124;BME280;63818;37.134;-8.548;2022-09-27T06:42:52;101549.2;;;19.6;46.7
72124;BME280;63818;37.134;-8.548;2022-09-27T06:47:39;101557.0;;;19.6;47.1
72124;BME280;63818;37.134;-8.548;2022-09-27T06:52:25;101559.5;;;19.5;47.5
72124;BME280;63818;37.134;-8.548;2022-09-27T06:57:11;101556.0;;;19.4;48.0
72124;BME280;63818;37.134;-8.548;2022-09-27T07:01:58;101566.3;;;19.6;47.7
72124;BME280;63818;37.134;-8.548;2022-09-27T07:06:45;101566.3;;;19.6;47.8
72124;BME280;63818;37.134;-8.548;2022-09-27T07:11:33;101580.4;;;19.8;47.3
72124;BME280;63818;37.134;-8.548;2022-09-27T07:16:19;101584.2;;;19.7;47.7
72124;BME280;63818;37.134;-8.548;2022-09-27T07:21:06;101590.3;;;19.4;48.8
72124;BME280;63818;37.134;-8.548;2022-09-27T07:25:53;101593.5;;;19.3;49.6
72124;BME280;63818;37.134;-8.548;2022-09-27T07:30:40;101615.3;;;19.5;49.6
72124;BME280;63818;37.134;-8.548;2022-09-27T07:35:27;101610.5;;;19.6;49.7
72124;BME280;63818;37.134;-8.548;2022-09-27T07:40:16;101616.4;;;19.8;49.7
72124;BME280;63818;37.134;-8.548;2022-09-27T07:45:02;101620.2;;;19.9;49.5
72124;BME280;63818;37.134;-8.548;2022-09-27T07:49:49;101618.1;;;19.9;49.6
72124;BME280;63818;37.134;-8.548;2022-09-27T07:54:35;101625.7;;;19.8;50.5
72124;BME280;63818;37.134;-8.548;2022-09-27T07:59:21;101627.3;;;19.8;51.0
72124;BME280;63818;37.134;-8.548;2022-09-27T08:04:08;101633.0;;;20.0;50.6
72124;BME280;63818;37.134;-8.548;2022-09-27T08:08:54;101637.1;;;19.8;51.2
72124;BME280;63818;37.134;-8.548;2022-09-27T08:13:41;101633.7;;;19.7;51.9
72124;BME280;63818;37.134;-8.548;2022-09-27T08:18:27;101639.0;;;20.1;50.8
72124;BME280;63818;37.134;-8.548;2022-09-27T08:23:13;101646.4;;;20.1;50.8
72124;BME280;63818;37.134;-8.548;2022-09-27T08:28:01;101653.5;;;20.3;50.3
72124;BME280;63818;37.134;-8.548;2022-09-27T08:32:47;101651.9;;;20.4;49.2
72124;BME280;63818;37.134;-8.548;2022-09-27T08:37:33;101650.9;;;20.5;48.8
72124;BME280;63818;37.134;-8.548;2022-09-27T08:42:24;101663.1;;;20.6;48.8
72124;BME280;63818;37.134;-8.548;2022-09-27T08:47:15;101661.8;;;20.7;49.1
72124;BME280;63818;37.134;-8.548;2022-09-27T08:52:06;101679.5;;;20.8;48.9
72124;BME280;63818;37.134;-8.548;2022-09-27T08:56:57;101681.2;;;20.7;49.8
72124;BME280;63818;37.134;-8.548;2022-09-27T09:01:48;101681.8;;;20.8;50.2
72124;BME280;63818;37.134;-8.548;2022-09-27T09:06:39;101684.6;;;20.8;50.2
72124;BME280;63818;37.134;-8.548;2022-09-27T09:11:35;101695.0;;;20.9;49.8
72124;BME280;63818;37.134;-8.548;2022-09-27T09:16:42;101694.0;;;21.0;48.9
72124;BME280;63818;37.134;-8.548;2022-09-27T09:21:31;101691.0;;;21.0;49.3
72124;BME280;63818;37.134;-8.548;2022-09-27T09:26:25;101700.1;;;21.1;49.7
72124;BME280;63818;37.134;-8.548;2022-09-27T09:31:18;101700.9;;;21.1;50.2
72124;BME280;63818;37.134;-8.548;2022-09-27T09:36:14;101712.4;;;21.2;51.4
72124;BME280;63818;37.134;-8.548;2022-09-27T09:41:07;101709.9;;;21.1;51.0
72124;BME280;63818;37.134;-8.548;2022-09-27T09:46:00;101713.6;;;21.2;50.7
72124;BME280;63818;37.134;-8.548;2022-09-27T09:50:52;101711.5;;;21.3;51.0
72124;BME280;63818;37.134;-8.548;2022-09-27T09:55:44;101709.9;;;21.2;50.0
72124;BME280;63818;37.134;-8.548;2022-09-27T10:00:31;101711.1;;;21.3;50.2
72124;BME280;63818;37.134;-8.548;2022-09-27T10:05:19;101710.6;;;21.4;49.7
72124;BME280;63818;37.134;-8.548;2022-09-27T10:10:09;101711.1;;;21.5;49.5
72124;BME280;63818;37.134;-8.548;2022-09-27T10:15:01;101727.2;;;21.5;49.3
72124;BME280;63818;37.134;-8.548;2022-09-27T10:19:48;101716.8;;;21.5;48.8
72124;BME280;63818;37.134;-8.548;2022-09-27T10:24:54;101714.5;;;21.5;48.2
72124;BME280;63818;37.134;-8.548;2022-09-27T10:29:41;101708.4;;;21.6;47.7
72124;BME280;63818;37.134;-8.548;2022-09-27T10:34:34;101712.7;;;21.6;46.5
72124;BME280;63818;37.134;-8.548;2022-09-27T10:39:21;101705.5;;;21.7;45.8
72124;BME280;63818;37.134;-8.548;2022-09-27T10:44:24;101703.8;;;21.7;44.3
72124;BME280;63818;37.134;-8.548;2022-09-27T10:49:19;101702.4;;;21.8;44.6
72124;BME280;63818;37.134;-8.548;2022-09-27T10:54:16;101703.9;;;21.9;48.3
72124;BME280;63818;37.134;-8.548;2022-09-27T10:59:03;101701.1;;;22.0;47.2
72124;BME280;63818;37.134;-8.548;2022-09-27T11:03:53;101712.2;;;22.1;44.9
72124;BME280;63818;37.134;-8.548;2022-09-27T11:08:39;101695.8;;;22.1;44.8
72124;BME280;63818;37.134;-8.548;2022-09-27T11:13:26;101689.2;;;22.2;44.8
72124;BME280;63818;37.134;-8.548;2022-09-27T11:18:17;101691.2;;;22.2;44.5
72124;BME280;63818;37.134;-8.548;2022-09-27T11:23:35;101703.1;;;22.3;44.1
72124;BME280;63818;37.134;-8.548;2022-09-27T11:28:30;101700.0;;;22.3;45.2
72124;BME280;63818;37.134;-8.548;2022-09-27T11:33:42;101687.6;;;22.4;43.5
72124;BME280;63818;37.134;-8.548;2022-09-27T11:38:43;101682.3;;;22.5;43.7
72124;BME280;63818;37.134;-8.548;2022-09-27T11:43:48;101691.0;;;22.5;42.0
72124;BME280;63818;37.134;-8.548;2022-09-27T11:48:55;101680.4;;;22.5;41.5
72124;BME280;63818;37.134;-8.548;2022-09-27T11:54:34;101658.0;;;22.7;39.7
72124;BME280;63818;37.134;-8.548;2022-09-27T11:59:30;101654.9;;;22.7;39.8
72124;BME280;63818;37.134;-8.548;2022-09-27T12:04:37;101668.4;;;22.8;39.0
72124;BME280;63818;37.134;-8.548;2022-09-27T12:09:30;101644.1;;;22.8;38.3
72124;BME280;63818;37.134;-8.548;2022-09-27T12:14:20;101652.0;;;22.8;37.0
72124;BME280;63818;37.134;-8.548;2022-09-27T12:19:14;101635.5;;;22.8;39.3
72124;BME280;63818;37.134;-8.548;2022-09-27T12:24:03;101641.5;;;22.9;39.5
72124;BME280;63818;37.134;-8.548;2022-09-27T12:28:51;101648.7;;;23.0;36.3
72124;BME280;63818;37.134;-8.548;2022-09-27T12:33:43;101627.0;;;22.9;37.4
72124;BME280;63818;37.134;-8.548;2022-09-27T12:38:38;101622.0;;;22.9;38.2
72124;BME280;63818;37.134;-8.548;2022-09-27T12:43:28;101625.8;;;23.0;38.2
72124;BME280;63818;37.134;-8.548;2022-09-27T12:48:19;101626.5;;;23.1;37.6
72124;BME280;63818;37.134;-8.548;2022-09-27T12:53:12;101622.5;;;23.3;35.1
72124;BME280;63818;37.134;-8.548;2022-09-27T12:58:40;101623.8;;;23.3;33.3
72124;BME280;63818;37.134;-8.548;2022-09-27T13:10:13;101592.8;;;23.3;34.4
72124;BME280;63818;37.134;-8.548;2022-09-27T13:15:06;101599.9;;;23.3;32.6
72124;BME280;63818;37.134;-8.548;2022-09-27T13:19:56;101587.1;;;23.4;29.6
72124;BME280;63818;37.134;-8.548;2022-09-27T13:24:45;101600.3;;;23.7;30.9
72124;BME280;63818;37.134;-8.548;2022-09-27T13:29:32;101572.0;;;23.6;29.1
72124;BME280;63818;37.134;-8.548;2022-09-27T13:34:38;101573.7;;;23.6;30.8
72124;BME280;63818;37.134;-8.548;2022-09-27T13:39:26;101577.3;;;23.8;32.1
72124;BME280;63818;37.134;-8.548;2022-09-27T13:44:15;101593.1;;;23.8;34.4
72124;BME280;63818;37.134;-8.548;2022-09-27T13:49:14;101570.8;;;23.9;35.4
72124;BME280;63818;37.134;-8.548;2022-09-27T13:54:04;101565.3;;;24.0;35.3
72124;BME280;63818;37.134;-8.548;2022-09-27T13:58:53;101550.9;;;24.0;35.8
72124;BME280;63818;37.134;-8.548;2022-09-27T14:03:44;101543.5;;;24.1;36.3
72124;BME280;63818;37.134;-8.548;2022-09-27T14:08:33;101560.7;;;24.0;36.9
72124;BME280;63818;37.134;-8.548;2022-09-27T14:13:22;101559.1;;;24.0;36.9
72124;BME280;63818;37.134;-8.548;2022-09-27T14:18:10;101558.7;;;23.6;39.4
72124;BME280;63818;37.134;-8.548;2022-09-27T14:22:57;101551.4;;;23.7;38.9
72124;BME280;63818;37.134;-8.548;2022-09-27T14:27:43;101550.8;;;23.9;38.1
72124;BME280;63818;37.134;-8.548;2022-09-27T14:32:31;101569.2;;;23.9;38.6
72124;BME280;63818;37.134;-8.548;2022-09-27T14:37:23;101581.1;;;24.1;38.6
72124;BME280;63818;37.134;-8.548;2022-09-27T14:42:19;101577.5;;;24.4;38.4
72124;BME280;63818;37.134;-8.548;2022-09-27T14:47:18;101553.8;;;24.7;38.2
72124;BME280;63818;37.134;-8.548;2022-09-27T14:52:15;101553.4;;;27.2;33.2
72124;BME280;63818;37.134;-8.548;2022-09-27T14:57:06;101557.1;;;29.1;29.7
72124;BME280;63818;37.134;-8.548;2022-09-27T15:01:53;101557.1;;;30.5;28.7
72124;BME280;63818;37.134;-8.548;2022-09-27T15:06:40;101522.2;;;31.1;27.5
72124;BME280;63818;37.134;-8.548;2022-09-27T15:11:26;101532.5;;;31.5;27.1
72124;BME280;63818;37.134;-8.548;2022-09-27T15:16:16;101557.2;;;31.2;27.5
72124;BME280;63818;37.134;-8.548;2022-09-27T15:21:03;101538.3;;;31.0;27.8
72124;BME280;63818;37.134;-8.548;2022-09-27T15:26:01;101520.1;;;31.0;27.3
72124;BME280;63818;37.134;-8.548;2022-09-27T15:30:52;101543.7;;;30.4;28.2
72124;BME280;63818;37.134;-8.548;2022-09-27T15:35:48;101521.6;;;30.2;29.0
72124;BME280;63818;37.134;-8.548;2022-09-27T15:41:20;101536.2;;;29.4;30.6
72124;BME280;63818;37.134;-8.548;2022-09-27T15:46:27;101526.0;;;29.6;29.6
72124;BME280;63818;37.134;-8.548;2022-09-27T15:51:37;101587.3;;;29.7;30.3
72124;BME280;63818;37.134;-8.548;2022-09-27T15:56:23;101555.6;;;29.7;30.1
72124;BME280;63818;37.134;-8.548;2022-09-27T16:01:17;101602.5;;;29.8;30.3
72124;BME280;63818;37.134;-8.548;2022-09-27T16:06:04;101535.0;;;29.7;30.7
72124;BME280;63818;37.134;-8.548;2022-09-27T16:10:52;101552.0;;;29.4;31.3
72124;BME280;63818;37.134;-8.548;2022-09-27T16:15:39;101564.3;;;29.4;30.3
72124;BME280;63818;37.134;-8.548;2022-09-27T16:20:26;101551.1;;;28.9;31.6
72124;BME280;63818;37.134;-8.548;2022-09-27T16:25:12;101558.6;;;28.8;32.3
72124;BME280;63818;37.134;-8.548;2022-09-27T16:29:59;101548.8;;;28.3;32.4
72124;BME280;63818;37.134;-8.548;2022-09-27T16:34:45;101557.2;;;27.6;33.5
72124;BME280;63818;37.134;-8.548;2022-09-27T16:39:31;101546.8;;;27.0;35.1
72124;BME280;63818;37.134;-8.548;2022-09-27T16:44:17;101557.5;;;26.4;35.8
72124;BME280;63818;37.134;-8.548;2022-09-27T16:49:06;101543.7;;;26.0;38.1
72124;BME280;63818;37.134;-8.548;2022-09-27T16:53:54;101545.7;;;26.0;38.9
72124;BME280;63818;37.134;-8.548;2022-09-27T16:58:41;101547.6;;;25.7;40.9
72124;BME280;63818;37.134;-8.548;2022-09-27T17:03:30;101546.7;;;25.4;42.1
72124;BME280;63818;37.134;-8.548;2022-09-27T17:08:16;101547.1;;;25.3;42.5
72124;BME280;63818;37.134;-8.548;2022-09-27T17:13:03;101539.6;;;25.4;42.9
72124;BME280;63818;37.134;-8.548;2022-09-27T17:17:49;101544.7;;;25.2;43.1
72124;BME280;63818;37.134;-8.548;2022-09-27T17:22:35;101561.5;;;25.0;44.0
72124;BME280;63818;37.134;-8.548;2022-09-27T17:27:22;101565.8;;;25.1;44.5
72124;BME280;63818;37.134;-8.548;2022-09-27T17:32:08;101552.7;;;24.9;46.3
72124;BME280;63818;37.134;-8.548;2022-09-27T17:36:55;101547.1;;;24.6;47.0
72124;BME280;63818;37.134;-8.548;2022-09-27T17:41:43;101577.5;;;24.4;48.1
72124;BME280;63818;37.134;-8.548;2022-09-27T17:46:32;101570.7;;;24.2;49.3
72124;BME280;63818;37.134;-8.548;2022-09-27T17:51:18;101588.1;;;24.0;49.9
72124;BME280;63818;37.134;-8.548;2022-09-27T17:56:05;101590.5;;;23.7;51.3
72124;BME280;63818;37.134;-8.548;2022-09-27T18:00:52;101581.6;;;23.4;52.0
72124;BME280;63818;37.134;-8.548;2022-09-27T18:05:38;101596.8;;;23.4;52.7
72124;BME280;63818;37.134;-8.548;2022-09-27T18:10:27;101582.6;;;23.3;53.4
72124;BME280;63818;37.134;-8.548;2022-09-27T18:15:13;101610.3;;;22.7;54.9
72124;BME280;63818;37.134;-8.548;2022-09-27T18:19:59;101604.9;;;22.5;56.3
72124;BME280;63818;37.134;-8.548;2022-09-27T18:24:45;101609.1;;;22.2;57.4
72124;BME280;63818;37.134;-8.548;2022-09-27T18:29:31;101609.7;;;22.3;57.0
72124;BME280;63818;37.134;-8.548;2022-09-27T18:34:18;101606.3;;;22.2;57.5
72124;BME280;63818;37.134;-8.548;2022-09-27T18:39:04;101613.6;;;22.1;57.9
72124;BME280;63818;37.134;-8.548;2022-09-27T18:43:54;101606.1;;;22.0;58.7
72124;BME280;63818;37.134;-8.548;2022-09-27T18:48:41;101623.3;;;21.9;59.3
72124;BME280;63818;37.134;-8.548;2022-09-27T18:53:30;101611.1;;;21.8;59.7
72124;BME280;63818;37.134;-8.548;2022-09-27T18:58:16;101615.5;;;21.5;60.6
72124;BME280;63818;37.134;-8.548;2022-09-27T19:03:02;101616.1;;;21.6;60.7
72124;BME280;63818;37.134;-8.548;2022-09-27T19:07:48;101626.8;;;21.7;60.5
72124;BME280;63818;37.134;-8.548;2022-09-27T19:12:35;101626.4;;;21.7;60.4
72124;BME280;63818;37.134;-8.548;2022-09-27T19:17:21;101621.9;;;21.6;60.8
72124;BME280;63818;37.134;-8.548;2022-09-27T19:22:08;101627.1;;;21.4;61.3
72124;BME280;63818;37.134;-8.548;2022-09-27T19:26:54;101626.9;;;21.5;60.9
72124;BME280;63818;37.134;-8.548;2022-09-27T19:31:41;101622.3;;;21.4;61.0
72124;BME280;63818;37.134;-8.548;2022-09-27T19:36:27;101618.5;;;21.6;60.1
72124;BME280;63818;37.134;-8.548;2022-09-27T19:41:14;101628.3;;;21.6;60.1
72124;BME280;63818;37.134;-8.548;2022-09-27T19:46:03;101642.5;;;21.7;59.8
72124;BME280;63818;37.134;-8.548;2022-09-27T19:50:56;101628.0;;;21.7;59.6
72124;BME280;63818;37.134;-8.548;2022-09-27T19:55:43;101637.3;;;21.7;59.9
72124;BME280;63818;37.134;-8.548;2022-09-27T20:00:30;101642.9;;;21.5;60.1
72124;BME280;63818;37.134;-8.548;2022-09-27T20:05:16;101648.6;;;21.6;60.1
72124;BME280;63818;37.134;-8.548;2022-09-27T20:10:03;101648.9;;;21.6;59.7
72124;BME280;63818;37.134;-8.548;2022-09-27T20:14:49;101645.2;;;21.7;59.4
72124;BME280;63818;37.134;-8.548;2022-09-27T20:19:35;101636.5;;;21.8;58.8
72124;BME280;63818;37.134;-8.548;2022-09-27T20:24:22;101639.1;;;21.6;59.8
72124;BME280;63818;37.134;-8.548;2022-09-27T20:29:10;101642.5;;;21.5;60.2
72124;BME280;63818;37.134;-8.548;2022-09-27T20:33:57;101649.9;;;21.3;60.6
72124;BME280;63818;37.134;-8.548;2022-09-27T20:38:45;101658.0;;;20.9;61.5
72124;BME280;63818;37.134;-8.548;2022-09-27T20:43:31;101657.8;;;21.4;60.2
72124;BME280;63818;37.134;-8.548;2022-09-27T20:48:18;101653.9;;;21.0;60.9
72124;BME280;63818;37.134;-8.548;2022-09-27T20:53:04;101647.1;;;20.6;62.4
72124;BME280;63818;37.134;-8.548;2022-09-27T20:57:50;101650.6;;;20.8;61.9
72124;BME280;63818;37.134;-8.548;2022-09-27T21:02:36;101652.7;;;20.2;63.8
72124;BME280;63818;37.134;-8.548;2022-09-27T21:07:23;101668.5;;;20.3;64.0
72124;BME280;63818;37.134;-8.548;2022-09-27T21:12:09;101668.6;;;20.2;64.3
72124;BME280;63818;37.134;-8.548;2022-09-27T21:16:57;101677.4;;;20.2;64.4
72124;BME280;63818;37.134;-8.548;2022-09-27T21:21:44;101675.9;;;19.9;65.6
72124;BME280;63818;37.134;-8.548;2022-09-27T21:26:31;101667.8;;;20.1;65.4
72124;BME280;63818;37.134;-8.548;2022-09-27T21:31:18;101677.7;;;20.0;65.3
72124;BME280;63818;37.134;-8.548;2022-09-27T21:36:06;101664.6;;;20.0;65.7
72124;BME280;63818;37.134;-8.548;2022-09-27T21:40:58;101668.8;;;20.4;64.1
72124;BME280;63818;37.134;-8.548;2022-09-27T21:45:44;101660.6;;;20.4;64.2
72124;BME280;63818;37.134;-8.548;2022-09-27T21:50:31;101661.9;;;20.5;63.9
72124;BME280;63818;37.134;-8.548;2022-09-27T21:55:18;101655.6;;;20.5;63.9
72124;BME280;63818;37.134;-8.548;2022-09-27T22:00:04;101652.9;;;20.6;63.6
72124;BME280;63818;37.134;-8.548;2022-09-27T22:04:50;101657.9;;;20.3;64.6
72124;BME280;63818;37.134;-8.548;2022-09-27T22:09:39;101646.2;;;20.3;64.4
72124;BME280;63818;37.134;-8.548;2022-09-27T22:14:25;101644.8;;;20.2;64.8
72124;BME280;63818;37.134;-8.548;2022-09-27T22:19:13;101642.7;;;20.0;65.6
72124;BME280;63818;37.134;-8.548;2022-09-27T22:24:02;101644.2;;;19.8;66.1
72124;BME280;63818;37.134;-8.548;2022-09-27T22:28:49;101645.8;;;20.0;65.1
72124;BME280;63818;37.134;-8.548;2022-09-27T22:33:35;101648.7;;;20.1;65.0
72124;BME280;63818;37.134;-8.548;2022-09-27T22:38:22;101648.7;;;20.1;64.4
72124;BME280;63818;37.134;-8.548;2022-09-27T22:43:08;101638.8;;;20.0;64.5
72124;BME280;63818;37.134;-8.548;2022-09-27T22:47:54;101644.9;;;20.1;63.6
72124;BME280;63818;37.134;-8.548;2022-09-27T22:52:41;101650.8;;;20.1;63.0
72124;BME280;63818;37.134;-8.548;2022-09-27T22:57:27;101648.2;;;20.0;63.4
72124;BME280;63818;37.134;-8.548;2022-09-27T23:02:14;101658.9;;;19.9;63.3
72124;BME280;63818;37.134;-8.548;2022-09-27T23:07:00;101648.5;;;19.7;63.6
72124;BME280;63818;37.134;-8.548;2022-09-27T23:11:47;101652.6;;;19.9;63.0
72124;BME280;63818;37.134;-8.548;2022-09-27T23:16:34;101657.0;;;19.8;63.5
72124;BME280;63818;37.134;-8.548;2022-09-27T23:21:21;101654.0;;;19.5;64.6
72124;BME280;63818;37.134;-8.548;2022-09-27T23:26:09;101649.5;;;19.5;64.9
72124;BME280;63818;37.134;-8.548;2022-09-27T23:30:56;101650.3;;;19.5;64.9
72124;BME280;63818;37.134;-8.548;2022-09-27T23:35:42;101639.9;;;19.9;64.2
72124;BME280;63818;37.134;-8.548;2022-09-27T23:40:28;101632.1;;;20.1;63.2
72124;BME280;63818;37.134;-8.548;2022-09-27T23:45:17;101645.5;;;20.0;63.4
72124;BME280;63818;37.134;-8.548;2022-09-27T23:50:04;101640.6;;;20.0;63.1
72124;BME280;63818;37.134;-8.548;2022-09-27T23:54:50;101638.9;;;19.8;63.4
72124;BME280;63818;37.134;-8.548;2022-09-27T23:59:37;101635.0;;;20.0;62.6
